createdAt,value
2019-04-05T00:00:32.593Z,90.90
2019-04-05T00:03:01.872Z,90.90
2019-04-05T00:05:31.194Z,90.90
2019-04-05T00:08:00.477Z,90.90
2019-04-05T00:10:29.802Z,91.00
2019-04-05T00:12:59.125Z,91.00
2019-04-05T00:15:28.472Z,91.00
2019-04-05T00:17:57.740Z,90.90
2019-04-05T00:20:27.041Z,91.00
2019-04-05T00:22:56.312Z,91.00
2019-04-05T00:25:25.676Z,91.00
2019-04-05T00:27:55.096Z,90.90
2019-04-05T00:30:24.388Z,90.90
2019-04-05T00:32:53.676Z,90.90
2019-04-05T00:35:22.976Z,91.00
2019-04-05T00:37:52.285Z,91.10
2019-04-05T00:40:21.586Z,91.20
2019-04-05T00:42:50.928Z,91.00
2019-04-05T00:45:28.011Z,91.00
2019-04-05T00:47:51.228Z,91.20
2019-04-05T00:50:20.553Z,91.20
2019-04-05T00:52:49.850Z,91.10
2019-04-05T00:55:19.133Z,91.00
2019-04-05T00:57:49.583Z,90.90
2019-04-05T01:00:19.195Z,90.90
2019-04-05T01:02:48.469Z,90.90
2019-04-05T01:05:17.757Z,90.90
2019-04-05T01:07:46.890Z,90.90
2019-04-05T01:10:16.593Z,91.00
2019-04-05T01:12:47.209Z,91.20
2019-04-05T01:15:16.666Z,91.30
2019-04-05T01:17:45.825Z,91.30
2019-04-05T01:20:15.070Z,91.30
2019-04-05T01:22:46.313Z,91.20
2019-04-05T01:25:15.481Z,91.30
2019-04-05T01:27:45.078Z,91.30
2019-04-05T01:30:15.977Z,91.20
2019-04-05T01:32:45.651Z,91.20
2019-04-05T01:35:14.920Z,91.20
2019-04-05T01:37:44.794Z,91.20
2019-04-05T01:40:15.001Z,91.20
2019-04-05T01:42:45.869Z,91.30
2019-04-05T01:45:15.148Z,91.20
2019-04-05T01:47:44.395Z,91.30
2019-04-05T01:50:13.542Z,91.30
2019-04-05T01:52:43.412Z,91.30
2019-04-05T01:55:13.073Z,91.40
2019-04-05T01:57:43.613Z,91.40
2019-04-05T02:00:14.190Z,91.40
2019-04-05T02:02:43.365Z,91.40
2019-04-05T02:05:13.006Z,91.50
2019-04-05T02:07:42.478Z,91.60
2019-04-05T02:10:12.889Z,91.60
2019-04-05T02:12:42.056Z,91.60
2019-04-05T02:15:13.073Z,91.70
2019-04-05T02:17:42.275Z,91.80
2019-04-05T02:20:11.632Z,92.20
2019-04-05T02:22:40.776Z,92.40
2019-04-05T02:25:10.146Z,92.30
2019-04-05T02:27:39.470Z,92.60
2019-04-05T02:30:08.922Z,92.70
2019-04-05T02:32:38.097Z,92.90
2019-04-05T02:35:08.128Z,92.70
2019-04-05T02:37:37.616Z,92.80
2019-04-05T02:40:10.838Z,92.60
2019-04-05T02:42:40.514Z,92.50
2019-04-05T02:45:11.802Z,92.40
2019-04-05T02:47:43.137Z,92.30
2019-04-05T02:50:13.581Z,92.30
2019-04-05T02:52:44.653Z,92.30
2019-04-05T02:55:14.038Z,92.50
2019-04-05T02:57:45.334Z,92.70
2019-04-05T03:00:14.765Z,92.80
2019-04-05T03:02:44.442Z,92.70
2019-04-05T03:05:13.774Z,92.70
2019-04-05T03:07:43.042Z,92.80
2019-04-05T03:10:33.698Z,92.80
2019-04-05T03:13:02.949Z,92.80
2019-04-05T03:15:34.646Z,92.80
2019-04-05T03:18:03.873Z,92.80
2019-04-05T03:20:33.146Z,92.90
2019-04-05T03:23:02.430Z,93.20
2019-04-05T03:25:31.968Z,93.20
2019-04-05T03:28:01.191Z,93.20
2019-04-05T03:30:30.425Z,93.50
2019-04-05T03:32:59.655Z,93.80
2019-04-05T03:35:29.141Z,93.70
2019-04-05T03:37:58.707Z,94.00
2019-04-05T03:40:28.207Z,94.10
2019-04-05T03:42:57.663Z,94.20
2019-04-05T03:45:26.834Z,94.20
2019-04-05T03:47:56.430Z,94.50
2019-04-05T03:50:25.624Z,94.60
2019-04-05T03:52:54.830Z,94.70
2019-04-05T03:55:24.404Z,94.80
2019-04-05T03:57:53.886Z,94.60
2019-04-05T04:00:23.146Z,94.60
2019-04-05T04:02:52.369Z,94.60
2019-04-05T04:05:21.683Z,94.70
2019-04-05T04:07:50.834Z,94.80
2019-04-05T04:10:20.339Z,94.70
2019-04-05T04:12:50.717Z,94.70
2019-04-05T04:15:19.948Z,94.80
2019-04-05T04:17:49.119Z,95.00
2019-04-05T04:20:39.138Z,94.80
2019-04-05T04:23:09.722Z,95.10
2019-04-05T04:25:40.441Z,95.20
2019-04-05T04:28:10.341Z,95.30
2019-04-05T04:30:39.602Z,95.30
2019-04-05T04:33:08.944Z,95.40
2019-04-05T04:35:38.389Z,95.50
2019-04-05T04:38:07.561Z,95.40
2019-04-05T04:40:37.468Z,95.70
2019-04-05T04:43:06.615Z,95.70
2019-04-05T04:45:35.857Z,95.70
2019-04-05T04:48:05.370Z,95.60
2019-04-05T04:50:35.055Z,95.60
2019-04-05T04:53:04.627Z,95.70
2019-04-05T04:55:34.427Z,95.50
2019-04-05T04:58:03.641Z,95.60
2019-04-05T05:00:32.973Z,95.80
2019-04-05T05:03:02.326Z,95.80
2019-04-05T05:05:31.523Z,95.70
2019-04-05T05:08:00.823Z,95.90
2019-04-05T05:10:29.957Z,95.70
2019-04-05T05:12:59.233Z,95.80
2019-04-05T05:15:28.598Z,95.70
2019-04-05T05:17:59.089Z,95.60
2019-04-05T05:20:28.989Z,95.60
2019-04-05T05:22:58.389Z,95.70
2019-04-05T05:25:27.823Z,95.70
2019-04-05T05:27:57.379Z,95.80
2019-04-05T05:30:27.546Z,95.70
2019-04-05T05:32:56.922Z,95.70
2019-04-05T05:35:26.206Z,95.80
2019-04-05T05:37:55.928Z,95.70
2019-04-05T05:40:34.752Z,95.60
2019-04-05T05:42:56.238Z,95.70
2019-04-05T05:45:25.398Z,95.70
2019-04-05T05:47:54.555Z,95.60
2019-04-05T05:50:24.072Z,95.50
2019-04-05T05:52:53.434Z,95.50
2019-04-05T05:55:22.689Z,95.60
2019-04-05T05:57:54.298Z,96.00
2019-04-05T06:00:24.360Z,95.60
2019-04-05T06:02:53.587Z,95.80
2019-04-05T06:05:22.761Z,95.50
2019-04-05T06:07:51.974Z,95.50
2019-04-05T06:10:21.121Z,95.60
2019-04-05T06:12:51.217Z,95.60
2019-04-05T06:15:20.359Z,95.40
2019-04-05T06:17:49.780Z,95.50
2019-04-05T06:20:19.611Z,95.40
2019-04-05T06:22:48.791Z,95.30
2019-04-05T06:25:18.228Z,95.30
2019-04-05T06:27:47.382Z,95.30
2019-04-05T06:30:16.778Z,95.00
2019-04-05T06:32:46.080Z,94.80
2019-04-05T06:35:15.428Z,95.00
2019-04-05T06:37:44.646Z,95.20
2019-04-05T06:40:13.769Z,95.40
2019-04-05T06:42:43.185Z,95.50
2019-04-05T06:45:12.323Z,95.70
2019-04-05T06:47:41.466Z,95.70
2019-04-05T06:50:10.729Z,96.10
2019-04-05T06:52:39.862Z,95.80
2019-04-05T06:55:09.114Z,95.90
2019-04-05T06:57:38.273Z,95.60
2019-04-05T07:00:08.226Z,95.70
2019-04-05T07:02:37.444Z,95.90
2019-04-05T07:05:06.993Z,96.00
2019-04-05T07:07:36.125Z,96.10
2019-04-05T07:10:05.818Z,95.90
2019-04-05T07:12:35.107Z,96.10
2019-04-05T07:15:04.815Z,96.10
2019-04-05T07:17:34.095Z,96.30
2019-04-05T07:20:03.414Z,96.40
2019-04-05T07:22:38.850Z,96.80
2019-04-05T07:25:03.520Z,97.00
2019-04-05T07:27:32.650Z,97.40
2019-04-05T07:30:01.865Z,98.20
2019-04-05T07:32:31.422Z,99.10
2019-04-05T07:35:00.963Z,99.70
2019-04-05T07:37:30.154Z,99.90
2019-04-05T07:39:59.281Z,99.90
2019-04-05T07:42:28.460Z,99.90
2019-04-05T07:44:57.653Z,99.90
2019-04-05T07:47:26.806Z,99.90
2019-04-05T07:49:56.066Z,99.90
2019-04-05T07:52:25.202Z,99.90
2019-04-05T07:54:54.421Z,99.90
2019-04-05T07:57:23.926Z,99.90
2019-04-05T07:59:53.060Z,99.90
2019-04-05T08:02:22.198Z,99.90
2019-04-05T08:04:51.526Z,99.90
2019-04-05T08:07:22.014Z,99.90
2019-04-05T08:09:51.991Z,99.90
2019-04-05T08:12:21.732Z,99.90
2019-04-05T08:14:51.151Z,99.90
2019-04-05T08:17:20.774Z,99.90
2019-04-05T08:19:49.985Z,99.90
2019-04-05T08:22:19.162Z,99.90
2019-04-05T08:24:48.377Z,99.90
2019-04-05T08:27:17.573Z,99.90
2019-04-05T08:29:46.746Z,99.90
2019-04-05T08:32:15.920Z,99.90
2019-04-05T08:34:45.055Z,99.90
2019-04-05T08:37:14.245Z,99.90
2019-04-05T08:39:43.415Z,99.90
2019-04-05T08:42:12.722Z,99.90
2019-04-05T08:44:41.958Z,99.90
2019-04-05T08:47:11.125Z,99.90
2019-04-05T08:49:40.351Z,99.90
2019-04-05T08:52:09.539Z,99.90
2019-04-05T08:54:38.750Z,99.90
2019-04-05T08:57:07.895Z,99.90
2019-04-05T08:59:37.122Z,99.90
2019-04-05T09:02:06.590Z,99.90
2019-04-05T09:04:35.726Z,99.90
2019-04-05T09:07:04.895Z,99.90
2019-04-05T09:09:34.051Z,99.90
2019-04-05T09:12:03.269Z,99.90
2019-04-05T09:14:32.417Z,99.90
2019-04-05T09:17:01.619Z,99.90
2019-04-05T09:19:30.737Z,99.90
2019-04-05T09:21:59.925Z,99.90
2019-04-05T09:24:29.112Z,99.90
2019-04-05T09:26:58.271Z,99.90
2019-04-05T09:29:27.483Z,99.90
2019-04-05T09:31:56.654Z,99.90
2019-04-05T09:34:25.817Z,99.90
2019-04-05T09:36:55.428Z,99.90
2019-04-05T09:39:24.636Z,99.90
2019-04-05T09:41:53.794Z,99.90
2019-04-05T09:44:23.899Z,99.90
2019-04-05T09:46:53.213Z,99.90
2019-04-05T09:49:22.462Z,99.90
2019-04-05T09:51:51.823Z,99.90
2019-04-05T09:54:21.074Z,99.90
2019-04-05T09:56:50.204Z,99.90
2019-04-05T09:59:19.377Z,99.90
2019-04-05T10:01:48.583Z,99.90
2019-04-05T10:04:17.750Z,99.90
2019-04-05T10:06:46.897Z,99.90
2019-04-05T10:09:16.154Z,99.90
2019-04-05T10:11:45.292Z,99.90
2019-04-05T10:14:14.801Z,99.90
2019-04-05T10:16:44.007Z,99.90
2019-04-05T10:19:13.226Z,99.90
2019-04-05T10:21:42.387Z,99.90
2019-04-05T10:24:11.593Z,99.90
2019-04-05T10:26:40.937Z,99.90
2019-04-05T10:29:10.149Z,99.90
2019-04-05T10:31:58.469Z,99.90
2019-04-05T10:34:27.773Z,99.90
2019-04-05T10:36:57.073Z,99.90
2019-04-05T10:39:26.316Z,99.90
2019-04-05T10:42:03.187Z,99.90
2019-04-05T10:44:26.346Z,99.90
2019-04-05T10:46:55.509Z,99.90
2019-04-05T10:49:24.734Z,99.90
2019-04-05T10:51:54.003Z,99.90
2019-04-05T10:54:23.163Z,99.90
2019-04-05T10:56:52.370Z,99.90
2019-04-05T10:59:21.835Z,99.90
2019-04-05T11:01:51.023Z,99.90
2019-04-05T11:04:20.234Z,99.90
2019-04-05T11:06:49.389Z,99.90
2019-04-05T11:09:18.581Z,99.90
2019-04-05T11:11:48.066Z,99.90
2019-04-05T11:14:17.325Z,99.90
2019-04-05T11:16:57.914Z,99.90
2019-04-05T11:19:17.562Z,99.90
2019-04-05T11:21:48.513Z,99.90
2019-04-05T11:24:17.739Z,99.90
2019-04-05T11:26:47.023Z,99.90
2019-04-05T11:29:16.214Z,99.90
2019-04-05T11:31:56.230Z,99.90
2019-04-05T11:34:16.412Z,99.90
2019-04-05T11:36:45.838Z,99.90
2019-04-05T11:39:15.209Z,99.90
2019-04-05T11:41:45.585Z,99.90
2019-04-05T11:44:16.929Z,99.90
2019-04-05T11:46:49.152Z,99.90
2019-04-05T11:49:17.707Z,99.90
2019-04-05T11:51:46.977Z,99.90
2019-04-05T11:54:18.474Z,99.90
2019-04-05T11:56:47.214Z,99.90
2019-04-05T11:59:16.633Z,99.90
2019-04-05T12:01:53.998Z,99.90
2019-04-05T12:04:23.233Z,99.90
2019-04-05T12:06:52.601Z,99.90
2019-04-05T12:09:22.257Z,99.90
2019-04-05T12:11:51.398Z,99.90
2019-04-05T12:14:30.058Z,99.90
2019-04-05T12:16:51.522Z,99.90
2019-04-05T12:19:20.646Z,99.90
2019-04-05T12:21:49.857Z,99.90
2019-04-05T12:24:19.074Z,99.90
2019-04-05T12:26:48.214Z,99.90
2019-04-05T12:29:17.465Z,99.90
2019-04-05T12:31:47.098Z,99.90
2019-04-05T12:34:16.391Z,99.90
2019-04-05T12:36:45.562Z,99.90
2019-04-05T12:39:14.806Z,99.90
2019-04-05T12:41:45.065Z,99.90
2019-04-05T12:44:15.488Z,99.90
2019-04-05T12:46:45.916Z,99.90
2019-04-05T12:49:15.817Z,99.90
2019-04-05T12:51:45.576Z,99.90
2019-04-05T12:54:15.497Z,99.90
2019-04-05T12:56:44.900Z,99.90
2019-04-05T12:59:14.450Z,99.90
2019-04-05T13:01:45.722Z,99.90
2019-04-05T13:04:14.530Z,99.90
2019-04-05T13:06:43.777Z,99.90
2019-04-05T13:09:13.932Z,99.90
2019-04-05T13:11:43.197Z,99.90
2019-04-05T13:14:12.324Z,99.90
2019-04-05T13:16:41.510Z,99.90
2019-04-05T13:19:10.787Z,99.90
2019-04-05T13:21:39.958Z,99.90
2019-04-05T13:24:10.081Z,99.90
2019-04-05T13:26:41.693Z,99.90
2019-04-05T13:29:10.396Z,99.90
2019-04-05T13:31:40.974Z,99.90
2019-04-05T13:34:10.335Z,99.90
2019-04-05T13:36:39.551Z,99.90
2019-04-05T13:39:09.665Z,99.90
2019-04-05T13:41:38.934Z,99.90
2019-04-05T13:44:08.382Z,99.90
2019-04-05T13:46:39.001Z,99.90
2019-04-05T13:49:10.331Z,99.90
2019-04-05T13:51:41.910Z,99.90
2019-04-05T13:54:11.015Z,99.90
2019-04-05T13:56:41.464Z,99.90
2019-04-05T13:59:11.182Z,99.90
2019-04-05T14:01:40.466Z,99.90
2019-04-05T14:04:09.741Z,99.90
2019-04-05T14:06:58.226Z,99.90
2019-04-05T14:09:27.705Z,99.90
2019-04-05T14:11:56.898Z,99.90
2019-04-05T14:14:28.378Z,99.90
2019-04-05T14:16:57.638Z,99.90
2019-04-05T14:19:28.779Z,99.90
2019-04-05T14:22:08.536Z,99.90
2019-04-05T14:24:29.403Z,99.90
2019-04-05T14:26:59.057Z,99.90
2019-04-05T14:29:29.533Z,99.90
2019-04-05T14:32:00.956Z,99.90
2019-04-05T14:34:32.933Z,99.90
2019-04-05T14:37:02.359Z,99.90
2019-04-05T14:39:31.654Z,99.90
2019-04-05T14:42:09.630Z,99.90
2019-04-05T14:44:31.887Z,99.90
2019-04-05T14:47:01.026Z,99.90
2019-04-05T14:49:31.312Z,99.90
2019-04-05T14:52:01.774Z,99.90
2019-04-05T14:54:31.113Z,99.90
2019-04-05T14:57:05.379Z,99.90
2019-04-05T14:59:32.809Z,99.90
2019-04-05T15:02:02.290Z,99.90
2019-04-05T15:04:31.432Z,99.90
2019-04-05T15:07:01.354Z,99.90
2019-04-05T15:09:30.812Z,99.90
2019-04-05T15:11:59.969Z,99.90
2019-04-05T15:14:29.506Z,99.90
2019-04-05T15:16:58.686Z,99.90
2019-04-05T15:19:27.925Z,99.90
2019-04-05T15:22:05.582Z,99.90
2019-04-05T15:24:27.989Z,99.90
2019-04-05T15:26:57.168Z,99.90
2019-04-05T15:29:26.643Z,99.90
2019-04-05T15:31:56.135Z,99.90
2019-04-05T15:34:29.054Z,99.90
2019-04-05T15:39:50.530Z,99.90
2019-04-05T15:42:19.678Z,99.90
2019-04-05T15:44:48.953Z,99.90
2019-04-05T15:47:18.119Z,99.90
2019-04-05T15:49:51.524Z,99.90
2019-04-05T15:52:19.333Z,99.90
2019-04-05T15:54:48.732Z,99.90
2019-04-05T15:57:17.979Z,99.90
2019-04-05T15:59:47.221Z,99.90
2019-04-05T16:02:16.570Z,99.90
2019-04-05T16:04:46.122Z,99.90
2019-04-05T16:07:15.290Z,99.90
2019-04-05T16:09:44.472Z,99.90
2019-04-05T16:12:13.651Z,99.90
2019-04-05T16:14:42.922Z,99.90
2019-04-05T16:17:12.715Z,99.90
2019-04-05T16:19:42.310Z,99.90
2019-04-05T16:22:11.634Z,99.90
2019-04-05T16:24:41.013Z,99.90
2019-04-05T16:27:11.604Z,99.90
2019-04-05T16:29:40.894Z,99.90
2019-04-05T16:32:10.133Z,99.90
2019-04-05T16:34:39.320Z,99.90
2019-04-05T16:37:08.688Z,99.90
2019-04-05T16:39:37.888Z,99.90
2019-04-05T16:42:10.108Z,99.90
2019-04-05T16:44:38.267Z,99.90
2019-04-05T16:47:07.581Z,99.90
2019-04-05T16:49:36.933Z,99.90
2019-04-05T16:52:06.134Z,99.90
2019-04-05T16:54:35.277Z,99.90
2019-04-05T16:57:04.475Z,99.90
2019-04-05T16:59:33.630Z,99.90
2019-04-05T17:02:02.878Z,99.90
2019-04-05T17:04:32.134Z,99.90
2019-04-05T17:07:01.458Z,99.90
2019-04-05T17:09:30.673Z,99.90
2019-04-05T17:11:59.963Z,99.90
2019-04-05T17:14:29.254Z,99.90
2019-04-05T17:16:58.913Z,99.90
2019-04-05T17:19:28.081Z,99.90
2019-04-05T17:21:57.327Z,99.90
2019-04-05T17:24:27.965Z,99.90
2019-04-05T17:26:57.530Z,99.90
2019-04-05T17:29:26.943Z,99.90
2019-04-05T17:31:56.118Z,99.90
2019-04-05T17:34:25.515Z,99.90
2019-04-05T17:36:54.737Z,99.90
2019-04-05T17:39:23.894Z,99.90
2019-04-05T17:41:53.055Z,99.90
2019-04-05T17:44:22.330Z,99.90
2019-04-05T17:46:51.485Z,99.90
2019-04-05T17:49:20.703Z,99.90
2019-04-05T17:51:49.885Z,99.90
2019-04-05T17:54:19.065Z,99.90
2019-04-05T17:56:50.913Z,99.90
2019-04-05T17:59:20.464Z,99.90
2019-04-05T18:01:49.662Z,99.90
2019-04-05T18:04:18.806Z,99.90
2019-04-05T18:06:47.966Z,99.90
2019-04-05T18:09:17.213Z,99.90
2019-04-05T18:11:46.352Z,99.90
2019-04-05T18:14:15.493Z,99.90
2019-04-05T18:16:44.659Z,99.90
2019-04-05T18:19:13.831Z,99.90
2019-04-05T18:21:43.107Z,99.90
2019-04-05T18:24:12.377Z,99.90
2019-04-05T18:26:41.741Z,99.90
2019-04-05T18:29:12.834Z,99.90
2019-04-05T18:31:43.547Z,99.90
2019-04-05T18:34:13.030Z,99.90
2019-04-05T18:36:42.186Z,99.90
2019-04-05T18:39:11.815Z,99.90
2019-04-05T18:41:41.001Z,99.90
2019-04-05T18:44:10.133Z,99.90
2019-04-05T18:46:39.334Z,99.90
2019-04-05T18:49:08.498Z,99.90
2019-04-05T18:51:37.638Z,99.90
2019-04-05T18:54:06.930Z,99.90
2019-04-05T18:56:36.065Z,99.90
2019-04-05T18:59:05.281Z,99.90
2019-04-05T19:01:34.434Z,99.90
2019-04-05T19:04:05.519Z,99.90
2019-04-05T19:06:34.555Z,99.90
2019-04-05T19:09:05.733Z,99.90
2019-04-05T19:11:35.255Z,99.90
2019-04-05T19:14:04.632Z,99.90
2019-04-05T19:16:34.126Z,99.90
2019-04-05T19:19:03.620Z,99.90
2019-04-05T19:21:32.897Z,99.90
2019-04-05T19:24:02.067Z,99.90
2019-04-05T19:26:31.562Z,99.90
2019-04-05T19:29:00.681Z,99.90
2019-04-05T19:49:10.082Z,99.90
2019-04-05T19:51:39.226Z,99.90
2019-04-05T19:54:08.380Z,99.90
2019-04-05T19:56:37.630Z,99.90
2019-04-05T19:59:06.770Z,99.90
2019-04-05T20:01:36.004Z,99.90
2019-04-05T20:04:05.401Z,99.90
2019-04-05T20:06:34.638Z,99.90
2019-04-05T20:09:05.747Z,99.90
2019-04-05T20:11:34.941Z,99.90
2019-04-05T20:14:04.221Z,99.90
2019-04-05T20:16:33.840Z,99.90
2019-04-05T20:19:02.973Z,99.90
2019-04-05T20:21:32.143Z,99.90
2019-04-05T20:24:09.412Z,99.90
2019-04-05T20:26:32.406Z,99.90
2019-04-05T20:29:01.665Z,99.90
2019-04-05T20:31:30.798Z,99.90
2019-04-05T20:34:00.035Z,99.90
2019-04-05T20:36:29.297Z,99.90
2019-04-05T20:38:58.545Z,99.90
2019-04-05T20:41:27.682Z,99.90
2019-04-05T20:43:57.219Z,99.90
2019-04-05T20:46:27.762Z,99.90
2019-04-05T20:48:56.930Z,99.90
2019-04-05T20:51:26.126Z,99.90
2019-04-05T20:53:55.449Z,99.90
2019-04-05T20:56:24.878Z,99.90
2019-04-05T20:58:54.029Z,99.90
2019-04-05T21:01:23.290Z,99.90
2019-04-05T21:03:52.457Z,99.90
2019-04-05T21:06:21.982Z,99.90
2019-04-05T21:08:51.469Z,99.90
2019-04-05T21:11:20.721Z,99.90
2019-04-05T21:13:49.862Z,99.90
2019-04-05T21:16:19.164Z,99.90
2019-04-05T21:18:48.537Z,99.90
2019-04-05T21:21:17.761Z,99.90
2019-04-05T21:23:47.325Z,99.90
2019-04-05T21:26:16.902Z,99.90
2019-04-05T21:28:46.016Z,99.90
2019-04-05T21:31:15.157Z,99.90
2019-04-05T21:33:44.321Z,99.90
2019-04-05T21:36:13.501Z,99.90
2019-04-05T21:38:42.805Z,99.90
2019-04-05T21:41:13.225Z,99.90
2019-04-05T21:43:42.654Z,99.90
2019-04-05T21:46:11.882Z,99.90
2019-04-05T21:48:41.020Z,99.90
2019-04-05T21:51:10.218Z,99.90
2019-04-05T21:53:39.382Z,99.90
2019-04-05T21:56:08.605Z,99.90
2019-04-05T21:58:37.877Z,99.90
2019-04-05T22:01:10.366Z,99.90
2019-04-05T22:03:39.597Z,99.90
2019-04-05T22:06:08.787Z,99.90
2019-04-05T22:08:37.949Z,99.90
2019-04-05T22:11:08.946Z,99.90
2019-04-05T22:13:39.988Z,99.90
2019-04-05T22:16:09.262Z,99.90
2019-04-05T22:18:38.390Z,99.90
2019-04-05T22:21:07.562Z,99.90
2019-04-05T22:23:36.705Z,99.90
2019-04-05T22:26:07.741Z,99.90
2019-04-05T22:28:36.894Z,99.90
2019-04-05T22:31:06.081Z,99.90
2019-04-05T22:33:35.237Z,99.90
2019-04-05T22:36:04.464Z,99.90
2019-04-05T22:38:33.637Z,99.90
2019-04-05T22:41:03.330Z,99.90
2019-04-05T22:43:32.458Z,99.90
2019-04-05T22:46:01.621Z,99.90
2019-04-05T22:48:30.757Z,99.90
2019-04-05T22:50:59.981Z,99.90
2019-04-05T22:53:29.409Z,99.90
2019-04-05T22:55:58.550Z,99.90
2019-04-05T22:58:28.037Z,99.90
2019-04-05T23:00:57.165Z,99.90
2019-04-05T23:03:26.299Z,99.90
2019-04-05T23:05:56.829Z,99.90
2019-04-05T23:08:25.940Z,99.90
2019-04-05T23:10:55.113Z,99.90
2019-04-05T23:13:24.265Z,99.90
2019-04-05T23:15:53.473Z,99.90
2019-04-05T23:18:22.631Z,99.90
2019-04-05T23:20:51.805Z,99.90
2019-04-05T23:23:21.041Z,99.90
2019-04-05T23:25:50.197Z,99.90
2019-04-05T23:28:19.366Z,99.90
2019-04-05T23:30:48.586Z,99.90
2019-04-05T23:33:17.762Z,99.90
2019-04-05T23:35:46.932Z,99.90
2019-04-05T23:38:16.145Z,99.90
2019-04-05T23:40:45.305Z,99.90
2019-04-05T23:43:14.546Z,99.90
2019-04-05T23:45:43.766Z,99.90
2019-04-05T23:48:12.918Z,99.90
2019-04-05T23:50:42.080Z,99.90
2019-04-05T23:53:11.229Z,99.90
2019-04-05T23:55:41.591Z,99.90
2019-04-05T23:58:10.738Z,99.90
